createdAt,value
2022-11-06T00:01:16.857Z,13.23
2022-11-06T00:03:45.868Z,9.57
2022-11-06T00:06:35.070Z,10.80
2022-11-06T00:09:09.717Z,14.40
2022-11-06T00:11:42.537Z,11.60
2022-11-06T00:14:13.231Z,13.60
2022-11-06T00:16:41.828Z,13.37
2022-11-06T00:19:12.792Z,11.23
2022-11-06T00:21:43.497Z,14.60
2022-11-06T00:24:13.089Z,16.33
2022-11-06T00:26:49.805Z,16.17
2022-11-06T00:29:21.204Z,18.23
2022-11-06T00:31:52.023Z,17.57
2022-11-06T00:34:32.177Z,14.27
2022-11-06T00:37:00.217Z,18.23
2022-11-06T00:39:28.460Z,16.40
2022-11-06T00:41:56.310Z,19.77
2022-11-06T00:44:28.888Z,19.70
2022-11-06T00:47:01.517Z,18.17
2022-11-06T00:49:29.664Z,15.33
2022-11-06T00:51:57.706Z,16.40
2022-11-06T00:54:30.259Z,19.47
2022-11-06T00:57:03.193Z,20.20
2022-11-06T00:59:36.104Z,14.83
2022-11-06T01:02:07.233Z,16.17
2022-11-06T01:04:38.236Z,15.67
2022-11-06T01:07:06.100Z,19.77
2022-11-06T01:09:34.047Z,15.23
2022-11-06T01:12:17.157Z,17.83
2022-11-06T01:14:45.429Z,14.67
2022-11-06T01:17:16.396Z,18.37
2022-11-06T01:19:44.456Z,15.23
2022-11-06T01:22:12.500Z,17.00
2022-11-06T01:24:46.395Z,18.33
2022-11-06T01:27:29.799Z,18.77
2022-11-06T01:29:58.032Z,15.60
2022-11-06T01:32:26.023Z,15.27
2022-11-06T01:34:53.900Z,12.70
2022-11-06T01:37:21.870Z,15.57
2022-11-06T01:39:54.640Z,14.73
2022-11-06T01:42:23.224Z,14.50
2022-11-06T01:45:24.894Z,15.30
2022-11-06T01:47:52.877Z,14.37
2022-11-06T01:50:25.517Z,16.57
2022-11-06T01:52:53.533Z,13.77
2022-11-06T01:55:25.405Z,15.03
2022-11-06T01:57:56.371Z,16.07
2022-11-06T02:00:25.301Z,10.77
2022-11-06T02:02:53.490Z,9.57
2022-11-06T02:05:21.699Z,11.53
2022-11-06T02:07:51.839Z,10.00
2022-11-06T02:10:20.134Z,12.33
2022-11-06T02:13:09.176Z,11.23
2022-11-06T02:15:51.478Z,12.17
2022-11-06T02:18:52.983Z,13.47
2022-11-06T02:21:29.754Z,11.23
2022-11-06T02:24:25.831Z,10.83
2022-11-06T02:27:11.962Z,11.47
2022-11-06T02:29:49.755Z,11.43
2022-11-06T02:32:53.589Z,10.13
2022-11-06T02:35:55.714Z,9.47
2022-11-06T02:38:25.895Z,15.13
2022-11-06T02:41:07.533Z,11.23
2022-11-06T02:43:47.802Z,11.07
2022-11-06T02:46:32.397Z,10.57
2022-11-06T02:49:33.294Z,11.93
2022-11-06T02:52:04.741Z,10.00
2022-11-06T02:54:36.755Z,10.67
2022-11-06T02:57:09.801Z,9.63
2022-11-06T03:00:06.150Z,9.73
2022-11-06T03:03:14.552Z,10.57
2022-11-06T03:06:01.776Z,9.53
2022-11-06T03:08:42.394Z,11.17
2022-11-06T03:11:27.754Z,10.80
2022-11-06T03:14:32.364Z,10.00
2022-11-06T03:17:32.433Z,9.77
2022-11-06T03:20:23.712Z,10.17
2022-11-06T03:22:56.278Z,10.13
2022-11-06T03:25:36.320Z,9.87
2022-11-06T03:28:08.672Z,12.27
2022-11-06T03:30:40.143Z,10.73
2022-11-06T03:33:12.495Z,14.80
2022-11-06T03:35:49.136Z,12.23
2022-11-06T03:38:24.046Z,11.17
2022-11-06T03:40:54.054Z,9.87
2022-11-06T03:43:27.777Z,10.90
2022-11-06T03:46:03.344Z,10.77
2022-11-06T03:48:47.586Z,10.97
2022-11-06T03:51:36.183Z,12.23
2022-11-06T03:54:06.228Z,11.33
2022-11-06T03:56:40.519Z,11.23
2022-11-06T03:59:08.837Z,10.63
2022-11-06T04:01:40.797Z,11.80
2022-11-06T04:04:18.145Z,11.30
2022-11-06T04:06:49.287Z,11.80
2022-11-06T04:09:41.408Z,14.20
2022-11-06T04:12:27.953Z,14.27
2022-11-06T04:14:56.452Z,11.83
2022-11-06T04:17:29.100Z,11.13
2022-11-06T04:19:59.979Z,12.27
2022-11-06T04:22:33.682Z,11.93
2022-11-06T04:25:28.742Z,9.73
2022-11-06T04:28:32.819Z,10.67
2022-11-06T04:31:07.161Z,10.80
2022-11-06T04:34:19.505Z,9.73
2022-11-06T04:36:51.350Z,10.17
2022-11-06T04:39:32.712Z,12.20
2022-11-06T04:42:26.677Z,8.77
2022-11-06T04:45:22.888Z,11.47
2022-11-06T04:47:51.711Z,9.87
2022-11-06T04:50:23.644Z,9.27
2022-11-06T04:52:51.949Z,11.97
2022-11-06T04:55:20.131Z,11.30
2022-11-06T04:57:54.918Z,12.63
2022-11-06T05:00:23.050Z,11.03
2022-11-06T05:02:50.961Z,11.37
2022-11-06T05:05:18.924Z,9.50
2022-11-06T05:07:46.991Z,9.07
2022-11-06T05:10:14.956Z,7.33
2022-11-06T05:12:47.420Z,8.90
2022-11-06T05:15:15.725Z,9.20
2022-11-06T05:17:48.215Z,8.87
2022-11-06T05:20:16.340Z,8.53
2022-11-06T05:22:59.260Z,10.43
2022-11-06T05:25:31.039Z,10.57
2022-11-06T05:28:04.226Z,11.03
2022-11-06T05:30:38.134Z,9.53
2022-11-06T05:33:06.307Z,8.37
2022-11-06T05:35:34.302Z,9.13
2022-11-06T05:38:08.231Z,7.63
2022-11-06T05:40:41.396Z,7.47
2022-11-06T05:43:14.436Z,7.87
2022-11-06T05:45:42.272Z,6.23
2022-11-06T05:48:12.859Z,5.73
2022-11-06T05:50:45.763Z,6.67
2022-11-06T05:53:16.447Z,5.73
2022-11-06T05:55:44.576Z,6.73
2022-11-06T05:58:12.672Z,7.07
2022-11-06T06:00:41.170Z,4.50
2022-11-06T06:03:10.524Z,3.53
2022-11-06T06:05:38.559Z,3.10
2022-11-06T06:08:07.822Z,2.57
2022-11-06T06:10:35.854Z,2.73
2022-11-06T06:13:06.292Z,2.90
2022-11-06T06:15:41.655Z,4.63
2022-11-06T06:18:09.732Z,3.00
2022-11-06T06:20:40.699Z,3.30
2022-11-06T06:23:13.871Z,3.87
2022-11-06T06:25:46.275Z,2.87
2022-11-06T06:28:14.603Z,2.60
2022-11-06T06:31:01.002Z,2.60
2022-11-06T06:33:34.615Z,2.87
2022-11-06T06:36:17.773Z,2.87
2022-11-06T06:38:49.018Z,2.80
2022-11-06T06:41:23.622Z,2.63
2022-11-06T06:43:55.995Z,3.03
2022-11-06T06:46:37.695Z,2.40
2022-11-06T06:49:05.691Z,2.30
2022-11-06T06:51:36.940Z,2.33
2022-11-06T06:54:05.178Z,2.50
2022-11-06T06:56:33.362Z,2.87
2022-11-06T06:59:03.720Z,2.80
2022-11-06T07:01:32.284Z,2.93
2022-11-06T07:04:04.273Z,3.30
2022-11-06T07:06:32.730Z,4.70
2022-11-06T07:09:00.936Z,2.77
2022-11-06T07:11:29.161Z,3.97
2022-11-06T07:13:57.212Z,4.97
2022-11-06T07:16:26.515Z,4.27
2022-11-06T07:18:54.571Z,3.90
2022-11-06T07:21:22.562Z,3.80
2022-11-06T07:23:50.818Z,4.27
2022-11-06T07:26:18.975Z,4.60
2022-11-06T07:28:47.023Z,3.93
2022-11-06T07:31:15.502Z,5.17
2022-11-06T07:33:43.836Z,3.43
2022-11-06T07:36:13.227Z,4.50
2022-11-06T07:38:42.179Z,3.30
2022-11-06T07:41:17.373Z,4.37
2022-11-06T07:43:45.440Z,3.50
2022-11-06T07:46:16.491Z,3.33
2022-11-06T07:48:49.756Z,2.73
2022-11-06T07:51:23.262Z,3.10
2022-11-06T07:53:51.305Z,3.10
2022-11-06T07:56:19.656Z,4.53
2022-11-06T07:58:47.798Z,3.53
2022-11-06T08:01:23.501Z,2.70
2022-11-06T08:03:51.787Z,2.90
2022-11-06T08:06:22.514Z,3.07
2022-11-06T08:08:52.734Z,2.23
2022-11-06T08:11:27.321Z,2.73
2022-11-06T08:13:55.431Z,2.70
2022-11-06T08:16:27.960Z,2.77
2022-11-06T08:19:00.456Z,2.33
2022-11-06T08:21:28.416Z,2.60
2022-11-06T08:23:56.545Z,2.43
2022-11-06T08:26:27.179Z,2.43
2022-11-06T08:28:55.777Z,2.60
2022-11-06T08:31:23.924Z,2.50
2022-11-06T08:33:56.535Z,2.80
2022-11-06T08:36:24.363Z,2.77
2022-11-06T08:38:52.568Z,2.50
2022-11-06T08:41:23.188Z,2.63
2022-11-06T08:43:58.792Z,2.60
2022-11-06T08:46:26.689Z,2.67
2022-11-06T08:48:54.856Z,2.20
2022-11-06T08:51:22.740Z,2.13
2022-11-06T08:53:50.774Z,2.33
2022-11-06T08:56:18.784Z,3.10
2022-11-06T08:58:47.437Z,1.50
2022-11-06T09:01:18.126Z,3.30
2022-11-06T09:03:45.904Z,3.30
2022-11-06T09:06:13.728Z,1.93
2022-11-06T09:08:44.666Z,3.70
2022-11-06T09:11:15.378Z,2.20
2022-11-06T09:13:43.503Z,1.90
2022-11-06T09:16:19.616Z,1.60
2022-11-06T09:18:47.615Z,2.27
2022-11-06T09:21:15.599Z,1.60
2022-11-06T09:23:47.413Z,1.60
2022-11-06T09:26:20.196Z,1.77
2022-11-06T09:28:48.383Z,1.80
2022-11-06T09:31:16.577Z,2.10
2022-11-06T09:33:45.090Z,1.87
2022-11-06T09:36:13.042Z,1.27
2022-11-06T09:38:41.017Z,1.77
2022-11-06T09:41:13.747Z,1.70
2022-11-06T09:44:06.599Z,1.73
2022-11-06T09:46:45.762Z,1.57
2022-11-06T09:50:00.097Z,1.63
2022-11-06T09:52:33.006Z,2.30
2022-11-06T09:55:23.724Z,1.50
2022-11-06T09:57:54.564Z,1.40
2022-11-06T10:00:22.489Z,1.83
2022-11-06T10:03:14.218Z,1.47
2022-11-06T10:05:42.550Z,1.30
2022-11-06T10:08:27.695Z,1.57
2022-11-06T10:11:15.974Z,1.40
2022-11-06T10:14:20.891Z,1.33
2022-11-06T10:17:02.848Z,1.97
2022-11-06T10:19:49.985Z,1.90
2022-11-06T10:22:36.274Z,1.97
2022-11-06T10:25:21.192Z,1.27
2022-11-06T10:28:02.320Z,2.03
2022-11-06T10:30:46.343Z,2.80
2022-11-06T10:33:26.841Z,1.27
2022-11-06T10:36:16.355Z,1.47
2022-11-06T10:38:45.713Z,1.30
2022-11-06T10:41:19.135Z,3.07
2022-11-06T10:43:56.210Z,1.57
2022-11-06T10:46:51.027Z,1.67
2022-11-06T10:49:30.948Z,1.60
2022-11-06T10:52:20.487Z,1.53
2022-11-06T10:55:12.973Z,1.53
2022-11-06T10:57:59.255Z,1.47
2022-11-06T11:00:32.576Z,1.93
2022-11-06T11:03:02.358Z,1.50
2022-11-06T11:05:59.286Z,1.70
2022-11-06T11:08:34.606Z,1.40
2022-11-06T11:11:05.272Z,1.90
2022-11-06T11:13:34.018Z,2.57
2022-11-06T11:16:02.466Z,3.63
2022-11-06T11:18:33.666Z,2.37
2022-11-06T11:24:11.460Z,2.30
2022-11-06T11:26:44.741Z,2.43
2022-11-06T11:29:22.940Z,2.00
2022-11-06T11:31:58.885Z,2.13
2022-11-06T11:34:40.613Z,2.93
2022-11-06T11:37:39.004Z,2.40
2022-11-06T11:40:33.472Z,1.67
2022-11-06T11:43:26.470Z,2.17
2022-11-06T11:46:14.861Z,2.73
2022-11-06T11:49:07.060Z,2.40
2022-11-06T11:51:45.433Z,2.77
2022-11-06T11:54:14.215Z,2.60
2022-11-06T11:57:11.972Z,2.67
2022-11-06T11:59:48.206Z,3.67
2022-11-06T12:02:33.713Z,4.20
2022-11-06T12:05:28.653Z,2.83
2022-11-06T12:08:01.680Z,2.27
2022-11-06T12:10:36.453Z,2.60
2022-11-06T12:13:11.180Z,2.37
2022-11-06T12:15:41.294Z,2.77
2022-11-06T12:18:21.078Z,2.57
2022-11-06T12:21:02.524Z,2.15
2022-11-06T12:23:43.697Z,2.57
2022-11-06T12:26:35.717Z,2.37
2022-11-06T12:29:13.251Z,2.97
2022-11-06T12:32:07.348Z,2.57
2022-11-06T12:34:39.298Z,3.97
2022-11-06T12:37:13.318Z,2.93
2022-11-06T12:39:42.081Z,2.90
2022-11-06T12:42:13.851Z,2.83
2022-11-06T12:44:49.602Z,4.07
2022-11-06T12:47:26.208Z,4.30
2022-11-06T12:50:10.153Z,2.77
2022-11-06T12:52:53.200Z,2.70
2022-11-06T12:55:39.376Z,3.37
2022-11-06T12:58:19.433Z,3.13
2022-11-06T13:01:04.599Z,3.00
2022-11-06T13:03:55.969Z,3.93
2022-11-06T13:07:02.191Z,3.20
2022-11-06T13:09:59.007Z,3.22
2022-11-06T13:12:56.475Z,3.77
2022-11-06T13:15:29.865Z,3.33
2022-11-06T13:18:21.413Z,4.40
2022-11-06T13:20:58.572Z,3.77
2022-11-06T13:23:26.453Z,3.47
2022-11-06T13:26:11.453Z,4.20
2022-11-06T13:28:45.116Z,3.93
2022-11-06T13:31:14.663Z,4.53
2022-11-06T13:33:49.378Z,3.67
2022-11-06T13:36:17.973Z,4.33
2022-11-06T13:38:53.929Z,5.07
2022-11-06T13:41:35.511Z,4.63
2022-11-06T13:44:09.098Z,5.17
2022-11-06T13:47:23.910Z,4.37
2022-11-06T13:49:58.256Z,5.43
2022-11-06T13:52:34.964Z,4.23
2022-11-06T13:55:26.580Z,4.80
2022-11-06T13:58:05.223Z,4.53
2022-11-06T14:00:47.918Z,5.90
2022-11-06T14:03:41.243Z,4.73
2022-11-06T14:06:11.756Z,4.60
2022-11-06T14:08:53.116Z,4.73
2022-11-06T14:11:23.026Z,4.87
2022-11-06T14:14:07.175Z,3.93
2022-11-06T14:16:41.905Z,4.17
2022-11-06T14:19:14.808Z,5.50
2022-11-06T14:22:15.456Z,5.60
2022-11-06T14:24:48.037Z,4.33
2022-11-06T14:27:32.178Z,4.83
2022-11-06T14:30:50.157Z,5.20
2022-11-06T14:33:44.536Z,5.03
2022-11-06T14:36:27.569Z,4.17
2022-11-06T14:38:55.460Z,5.03
2022-11-06T14:41:35.257Z,4.70
2022-11-06T14:44:05.104Z,7.03
2022-11-06T14:46:32.965Z,5.57
2022-11-06T14:49:11.042Z,4.80
2022-11-06T14:51:38.932Z,4.77
2022-11-06T14:54:19.220Z,5.17
2022-11-06T14:56:52.940Z,9.90
2022-11-06T14:59:40.625Z,6.57
2022-11-06T15:02:25.370Z,6.07
2022-11-06T15:04:57.540Z,4.67
2022-11-06T15:08:03.847Z,5.00
2022-11-06T15:10:45.750Z,6.53
2022-11-06T15:13:19.510Z,5.90
2022-11-06T15:15:51.641Z,9.80
2022-11-06T15:18:24.000Z,5.77
2022-11-06T15:21:11.964Z,4.93
2022-11-06T15:23:46.797Z,6.90
2022-11-06T15:26:28.894Z,8.07
2022-11-06T15:29:10.932Z,5.10
2022-11-06T15:31:38.860Z,6.17
2022-11-06T15:34:09.648Z,4.67
2022-11-06T15:36:41.769Z,5.23
2022-11-06T15:39:30.663Z,6.53
2022-11-06T15:41:58.470Z,7.10
2022-11-06T15:44:26.245Z,7.03
2022-11-06T15:46:58.519Z,9.10
2022-11-06T15:49:26.792Z,8.37
2022-11-06T15:51:59.228Z,6.03
2022-11-06T15:54:39.213Z,5.87
2022-11-06T15:57:13.634Z,6.27
2022-11-06T15:59:41.407Z,5.13
2022-11-06T16:02:19.110Z,6.03
2022-11-06T16:04:47.384Z,4.97
2022-11-06T16:07:15.249Z,4.70
2022-11-06T16:09:43.200Z,5.33
2022-11-06T16:12:16.090Z,5.27
2022-11-06T16:14:46.873Z,6.60
2022-11-06T16:17:27.786Z,5.03
2022-11-06T16:20:02.126Z,4.97
2022-11-06T16:22:30.881Z,5.77
2022-11-06T16:25:00.161Z,5.53
2022-11-06T16:27:28.163Z,6.33
2022-11-06T16:29:58.131Z,5.47
2022-11-06T16:32:27.712Z,5.87
2022-11-06T16:34:56.411Z,6.63
2022-11-06T16:37:30.918Z,7.00
2022-11-06T16:40:00.498Z,8.00
2022-11-06T16:42:31.991Z,6.33
2022-11-06T16:45:19.508Z,6.93
2022-11-06T16:48:09.413Z,7.17
2022-11-06T16:50:47.421Z,7.70
2022-11-06T16:53:23.679Z,6.80
2022-11-06T16:55:55.686Z,6.67
2022-11-06T16:58:23.835Z,6.43
2022-11-06T17:01:00.153Z,7.33
2022-11-06T17:03:30.160Z,7.33
2022-11-06T17:05:58.828Z,7.80
2022-11-06T17:08:37.454Z,8.27
2022-11-06T17:11:14.620Z,7.37
2022-11-06T17:13:45.669Z,7.43
2022-11-06T17:16:16.073Z,7.43
2022-11-06T17:18:44.690Z,6.30
2022-11-06T17:21:25.452Z,5.97
2022-11-06T17:24:00.236Z,6.57
2022-11-06T17:26:31.920Z,6.67
2022-11-06T17:28:59.903Z,7.57
2022-11-06T17:31:27.939Z,8.00
2022-11-06T17:33:55.930Z,8.27
2022-11-06T17:36:27.868Z,7.30
2022-11-06T17:38:56.275Z,7.00
2022-11-06T17:41:33.584Z,6.80
2022-11-06T17:44:11.864Z,8.33
2022-11-06T17:46:42.490Z,7.80
2022-11-06T17:49:15.787Z,7.97
2022-11-06T17:51:53.941Z,9.83
2022-11-06T17:54:26.568Z,6.43
2022-11-06T17:56:55.276Z,8.47
2022-11-06T17:59:24.923Z,7.57
2022-11-06T18:01:53.579Z,8.53
2022-11-06T18:04:22.474Z,8.87
2022-11-06T18:06:51.060Z,10.07
2022-11-06T18:09:19.129Z,8.20
2022-11-06T18:11:47.321Z,8.47
2022-11-06T18:14:15.330Z,11.77
2022-11-06T18:16:44.101Z,7.90
2022-11-06T18:19:18.421Z,8.43
2022-11-06T18:21:46.277Z,7.03
2022-11-06T18:24:14.267Z,12.17
2022-11-06T18:26:42.514Z,14.80
2022-11-06T18:29:11.788Z,16.77
2022-11-06T18:31:42.202Z,16.93
2022-11-06T18:34:19.532Z,16.33
2022-11-06T18:36:52.049Z,10.70
2022-11-06T18:39:20.228Z,9.10
2022-11-06T18:41:50.964Z,13.63
2022-11-06T18:44:19.358Z,12.00
2022-11-06T18:46:51.876Z,11.67
2022-11-06T18:49:27.162Z,10.23
2022-11-06T18:51:55.129Z,16.20
2022-11-06T18:54:23.402Z,14.27
2022-11-06T18:56:51.259Z,13.13
2022-11-06T18:59:21.899Z,13.77
2022-11-06T19:01:49.956Z,12.97
2022-11-06T19:04:18.016Z,14.87
2022-11-06T19:06:45.839Z,13.93
2022-11-06T19:09:13.643Z,11.47
2022-11-06T19:11:41.437Z,10.80
2022-11-06T19:14:09.782Z,10.33
2022-11-06T19:16:37.837Z,12.40
2022-11-06T19:19:06.785Z,14.07
2022-11-06T19:21:44.014Z,11.33
2022-11-06T19:24:16.552Z,10.73
2022-11-06T19:26:52.275Z,8.77
2022-11-06T19:29:20.465Z,9.30
2022-11-06T19:31:50.011Z,9.17
2022-11-06T19:34:26.770Z,8.73
2022-11-06T19:37:00.434Z,10.07
2022-11-06T19:39:30.242Z,10.80
2022-11-06T19:42:03.771Z,9.13
2022-11-06T19:44:36.444Z,9.60
2022-11-06T19:47:09.276Z,10.70
2022-11-06T19:49:41.878Z,11.53
2022-11-06T19:52:41.829Z,9.50
2022-11-06T19:55:24.921Z,8.70
2022-11-06T19:57:58.685Z,9.93
2022-11-06T20:00:26.702Z,9.40
2022-11-06T20:02:54.627Z,9.07
2022-11-06T20:05:22.737Z,10.90
2022-11-06T20:07:51.905Z,9.57
2022-11-06T20:10:19.682Z,10.40
2022-11-06T20:12:47.749Z,12.87
2022-11-06T20:15:18.765Z,10.63
2022-11-06T20:17:52.241Z,10.67
2022-11-06T20:20:20.222Z,8.60
2022-11-06T20:22:48.519Z,8.30
2022-11-06T20:25:16.419Z,9.17
2022-11-06T20:27:49.054Z,7.73
2022-11-06T20:30:17.203Z,7.47
2022-11-06T20:32:46.381Z,8.87
2022-11-06T20:35:17.951Z,7.37
2022-11-06T20:37:46.323Z,8.10
2022-11-06T20:40:14.308Z,8.97
2022-11-06T20:42:42.275Z,8.03
2022-11-06T20:45:10.640Z,8.63
2022-11-06T20:47:38.441Z,8.00
2022-11-06T20:50:07.407Z,11.57
2022-11-06T20:52:35.377Z,9.37
2022-11-06T20:55:04.582Z,8.80
2022-11-06T20:57:32.517Z,8.17
2022-11-06T21:00:00.380Z,8.90
2022-11-06T21:02:28.643Z,8.57
2022-11-06T21:05:01.222Z,6.93
2022-11-06T21:07:29.330Z,6.40
2022-11-06T21:09:57.204Z,4.83
2022-11-06T21:12:50.063Z,6.03
2022-11-06T21:15:21.905Z,5.23
2022-11-06T21:17:53.603Z,5.43
2022-11-06T21:20:23.120Z,6.00
2022-11-06T21:22:55.921Z,5.57
2022-11-06T21:25:23.929Z,6.80
2022-11-06T21:27:52.021Z,4.87
2022-11-06T21:30:20.345Z,5.17
2022-11-06T21:32:48.308Z,5.37
2022-11-06T21:35:17.874Z,5.13
2022-11-06T21:37:45.902Z,7.93
2022-11-06T21:40:19.699Z,5.53
2022-11-06T21:42:48.270Z,4.93
2022-11-06T21:45:16.286Z,5.50
2022-11-06T21:47:47.230Z,5.47
2022-11-06T21:50:28.264Z,6.10
2022-11-06T21:53:24.057Z,5.30
2022-11-06T21:56:01.085Z,7.63
2022-11-06T21:58:29.156Z,6.17
2022-11-06T22:01:05.440Z,5.83
2022-11-06T22:03:35.133Z,6.53
2022-11-06T22:06:11.162Z,5.90
2022-11-06T22:08:44.803Z,5.27
2022-11-06T22:11:13.544Z,6.33
2022-11-06T22:13:46.757Z,5.73
2022-11-06T22:16:39.784Z,6.37
2022-11-06T22:19:08.397Z,6.47
2022-11-06T22:21:41.038Z,5.30
2022-11-06T22:24:10.017Z,5.40
2022-11-06T22:26:39.025Z,5.30
2022-11-06T22:29:12.153Z,6.30
2022-11-06T22:31:40.063Z,5.80
2022-11-06T22:34:12.045Z,5.37
2022-11-06T22:36:40.419Z,5.17
2022-11-06T22:39:10.113Z,5.47
2022-11-06T22:41:38.675Z,4.50
2022-11-06T22:44:07.419Z,5.13
2022-11-06T22:46:44.441Z,6.90
2022-11-06T22:49:13.566Z,6.23
2022-11-06T22:51:41.560Z,7.50
2022-11-06T22:54:15.775Z,4.57
2022-11-06T22:56:49.370Z,5.07
2022-11-06T22:59:19.507Z,6.17
2022-11-06T23:01:57.270Z,7.80
2022-11-06T23:04:25.319Z,6.13
2022-11-06T23:06:53.216Z,4.50
2022-11-06T23:09:26.012Z,4.53
2022-11-06T23:11:54.319Z,5.23
2022-11-06T23:14:23.001Z,7.27
2022-11-06T23:17:01.769Z,5.63
2022-11-06T23:19:30.534Z,4.23
2022-11-06T23:22:19.918Z,6.27
2022-11-06T23:25:00.505Z,6.63
2022-11-06T23:27:35.240Z,7.20
2022-11-06T23:30:03.667Z,6.50
2022-11-06T23:32:36.826Z,8.23
2022-11-06T23:35:08.086Z,8.80
2022-11-06T23:37:41.035Z,6.50
2022-11-06T23:40:09.851Z,6.10
2022-11-06T23:42:40.382Z,4.87
2022-11-06T23:45:30.839Z,6.30
2022-11-06T23:48:07.432Z,7.43
2022-11-06T23:50:36.438Z,5.37
2022-11-06T23:53:04.403Z,5.70
2022-11-06T23:55:32.749Z,4.73
2022-11-06T23:58:14.541Z,4.70
